sensor_id;sensor_type;location;lat;lon;timestamp;temperature;humidity
17421;DHT22;8828;48.800;9.540;2022-11-04T00:01:27;11.40;99.90
17421;DHT22;8828;48.800;9.540;2022-11-04T00:03:55;11.40;99.90
17421;DHT22;8828;48.800;9.540;2022-11-04T00:06:24;11.40;99.90
17421;DHT22;8828;48.800;9.540;2022-11-04T00:08:54;11.40;99.90
17421;DHT22;8828;48.800;9.540;2022-11-04T00:11:24;11.40;99.90
17421;DHT22;8828;48.800;9.540;2022-11-04T00:14:10;11.40;99.90
17421;DHT22;8828;48.800;9.540;2022-11-04T00:16:38;11.40;99.90
17421;DHT22;8828;48.800;9.540;2022-11-04T00:19:24;11.40;99.90
17421;DHT22;8828;48.800;9.540;2022-11-04T00:21:53;11.40;99.90
17421;DHT22;8828;48.800;9.540;2022-11-04T00:24:40;11.40;99.90
17421;DHT22;8828;48.800;9.540;2022-11-04T00:27:26;11.40;99.90
17421;DHT22;8828;48.800;9.540;2022-11-04T00:30:11;11.40;99.90
17421;DHT22;8828;48.800;9.540;2022-11-04T00:32:39;11.40;99.90
17421;DHT22;8828;48.800;9.540;2022-11-04T00:35:24;11.40;99.90
17421;DHT22;8828;48.800;9.540;2022-11-04T00:37:52;11.40;99.90
17421;DHT22;8828;48.800;9.540;2022-11-04T00:40:21;11.40;99.90
17421;DHT22;8828;48.800;9.540;2022-11-04T00:42:49;11.40;99.90
17421;DHT22;8828;48.800;9.540;2022-11-04T00:45:17;11.40;99.90
17421;DHT22;8828;48.800;9.540;2022-11-04T00:47:45;11.40;99.90
17421;DHT22;8828;48.800;9.540;2022-11-04T00:50:13;11.40;99.90
17421;DHT22;8828;48.800;9.540;2022-11-04T00:52:41;11.40;99.90
17421;DHT22;8828;48.800;9.540;2022-11-04T00:55:08;11.50;99.90
17421;DHT22;8828;48.800;9.540;2022-11-04T00:57:38;11.40;99.90
17421;DHT22;8828;48.800;9.540;2022-11-04T01:00:07;11.40;99.90
17421;DHT22;8828;48.800;9.540;2022-11-04T01:02:35;11.40;99.90
17421;DHT22;8828;48.800;9.540;2022-11-04T01:05:04;11.50;99.90
17421;DHT22;8828;48.800;9.540;2022-11-04T01:07:32;11.50;99.90
17421;DHT22;8828;48.800;9.540;2022-11-04T01:10:07;11.50;99.90
17421;DHT22;8828;48.800;9.540;2022-11-04T01:12:36;11.50;99.90
17421;DHT22;8828;48.800;9.540;2022-11-04T01:15:06;11.50;99.90
17421;DHT22;8828;48.800;9.540;2022-11-04T01:17:33;11.50;99.90
17421;DHT22;8828;48.800;9.540;2022-11-04T01:20:01;11.50;99.90
17421;DHT22;8828;48.800;9.540;2022-11-04T01:22:29;11.50;99.90
17421;DHT22;8828;48.800;9.540;2022-11-04T01:24:57;11.50;99.90
17421;DHT22;8828;48.800;9.540;2022-11-04T01:27:25;11.50;99.90
17421;DHT22;8828;48.800;9.540;2022-11-04T01:29:53;11.50;99.90
17421;DHT22;8828;48.800;9.540;2022-11-04T01:32:22;11.50;99.90
17421;DHT22;8828;48.800;9.540;2022-11-04T01:34:50;11.50;99.90
17421;DHT22;8828;48.800;9.540;2022-11-04T01:37:18;11.50;99.90
17421;DHT22;8828;48.800;9.540;2022-11-04T01:39:46;11.50;99.90
17421;DHT22;8828;48.800;9.540;2022-11-04T01:42:14;11.50;99.90
17421;DHT22;8828;48.800;9.540;2022-11-04T01:44:47;11.50;99.90
17421;DHT22;8828;48.800;9.540;2022-11-04T01:47:17;11.50;99.90
17421;DHT22;8828;48.800;9.540;2022-11-04T01:49:50;11.50;99.90
17421;DHT22;8828;48.800;9.540;2022-11-04T01:52:24;11.50;99.90
17421;DHT22;8828;48.800;9.540;2022-11-04T01:54:57;11.50;99.90
17421;DHT22;8828;48.800;9.540;2022-11-04T01:57:31;11.50;99.90
17421;DHT22;8828;48.800;9.540;2022-11-04T02:00:02;11.50;99.90
17421;DHT22;8828;48.800;9.540;2022-11-04T02:02:31;11.50;99.90
17421;DHT22;8828;48.800;9.540;2022-11-04T02:05:00;11.50;99.90
17421;DHT22;8828;48.800;9.540;2022-11-04T02:07:29;11.50;99.90
17421;DHT22;8828;48.800;9.540;2022-11-04T02:09:57;11.50;99.90
17421;DHT22;8828;48.800;9.540;2022-11-04T02:12:25;11.50;99.90
17421;DHT22;8828;48.800;9.540;2022-11-04T02:15:10;11.50;99.90
17421;DHT22;8828;48.800;9.540;2022-11-04T02:17:52;11.50;99.90
17421;DHT22;8828;48.800;9.540;2022-11-04T02:20:30;11.40;99.90
17421;DHT22;8828;48.800;9.540;2022-11-04T02:23:25;11.40;99.90
17421;DHT22;8828;48.800;9.540;2022-11-04T02:26:36;11.40;99.90
17421;DHT22;8828;48.800;9.540;2022-11-04T02:32:07;11.40;99.90
17421;DHT22;8828;48.800;9.540;2022-11-04T02:34:41;11.30;99.90
17421;DHT22;8828;48.800;9.540;2022-11-04T02:37:15;11.30;99.90
17421;DHT22;8828;48.800;9.540;2022-11-04T02:39:50;11.30;99.90
17421;DHT22;8828;48.800;9.540;2022-11-04T02:42:26;11.30;99.90
17421;DHT22;8828;48.800;9.540;2022-11-04T02:45:08;11.20;99.90
17421;DHT22;8828;48.800;9.540;2022-11-04T02:47:41;11.20;99.90
17421;DHT22;8828;48.800;9.540;2022-11-04T02:50:13;11.20;99.90
17421;DHT22;8828;48.800;9.540;2022-11-04T02:52:47;11.20;99.90
17421;DHT22;8828;48.800;9.540;2022-11-04T02:55:20;11.20;99.90
17421;DHT22;8828;48.800;9.540;2022-11-04T02:57:50;11.20;99.90
17421;DHT22;8828;48.800;9.540;2022-11-04T03:00:21;11.10;99.90
17421;DHT22;8828;48.800;9.540;2022-11-04T03:02:52;11.10;99.90
17421;DHT22;8828;48.800;9.540;2022-11-04T03:05:25;11.10;99.90
17421;DHT22;8828;48.800;9.540;2022-11-04T03:07:56;11.10;99.90
17421;DHT22;8828;48.800;9.540;2022-11-04T03:10:30;11.10;99.90
17421;DHT22;8828;48.800;9.540;2022-11-04T03:13:03;11.10;99.90
17421;DHT22;8828;48.800;9.540;2022-11-04T03:15:34;11.00;99.90
17421;DHT22;8828;48.800;9.540;2022-11-04T03:18:11;11.00;99.90
17421;DHT22;8828;48.800;9.540;2022-11-04T03:20:44;11.00;99.90
17421;DHT22;8828;48.800;9.540;2022-11-04T03:23:14;11.00;99.90
17421;DHT22;8828;48.800;9.540;2022-11-04T03:25:44;11.00;99.90
17421;DHT22;8828;48.800;9.540;2022-11-04T03:28:26;10.90;99.90
17421;DHT22;8828;48.800;9.540;2022-11-04T03:31:01;10.90;99.90
17421;DHT22;8828;48.800;9.540;2022-11-04T03:33:37;10.90;99.90
17421;DHT22;8828;48.800;9.540;2022-11-04T03:36:07;10.90;99.90
17421;DHT22;8828;48.800;9.540;2022-11-04T03:38:36;10.90;99.90
17421;DHT22;8828;48.800;9.540;2022-11-04T03:41:09;10.80;99.90
17421;DHT22;8828;48.800;9.540;2022-11-04T03:43:40;10.80;99.90
17421;DHT22;8828;48.800;9.540;2022-11-04T03:46:09;10.70;99.90
17421;DHT22;8828;48.800;9.540;2022-11-04T03:48:38;10.70;99.90
17421;DHT22;8828;48.800;9.540;2022-11-04T03:51:08;10.70;99.90
17421;DHT22;8828;48.800;9.540;2022-11-04T03:53:35;10.70;99.90
17421;DHT22;8828;48.800;9.540;2022-11-04T03:56:19;10.60;99.90
17421;DHT22;8828;48.800;9.540;2022-11-04T03:58:57;10.70;99.90
17421;DHT22;8828;48.800;9.540;2022-11-04T04:01:38;10.70;99.90
17421;DHT22;8828;48.800;9.540;2022-11-04T04:04:15;10.70;99.90
17421;DHT22;8828;48.800;9.540;2022-11-04T04:06:47;10.70;99.90
17421;DHT22;8828;48.800;9.540;2022-11-04T04:09:20;10.60;99.90
17421;DHT22;8828;48.800;9.540;2022-11-04T04:11:54;10.60;99.90
17421;DHT22;8828;48.800;9.540;2022-11-04T04:14:26;10.60;99.90
17421;DHT22;8828;48.800;9.540;2022-11-04T04:17:14;10.60;99.90
17421;DHT22;8828;48.800;9.540;2022-11-04T04:19:47;10.60;99.90
17421;DHT22;8828;48.800;9.540;2022-11-04T04:22:18;10.60;99.90
17421;DHT22;8828;48.800;9.540;2022-11-04T04:24:51;10.60;99.90
17421;DHT22;8828;48.800;9.540;2022-11-04T04:27:38;10.60;99.90
17421;DHT22;8828;48.800;9.540;2022-11-04T04:30:09;10.60;99.90
17421;DHT22;8828;48.800;9.540;2022-11-04T04:32:42;10.60;99.90
17421;DHT22;8828;48.800;9.540;2022-11-04T04:35:11;10.60;99.90
17421;DHT22;8828;48.800;9.540;2022-11-04T04:38:00;10.60;99.90
17421;DHT22;8828;48.800;9.540;2022-11-04T04:40:44;10.60;99.90
17421;DHT22;8828;48.800;9.540;2022-11-04T04:43:31;10.70;99.90
17421;DHT22;8828;48.800;9.540;2022-11-04T04:46:16;10.70;99.90
17421;DHT22;8828;48.800;9.540;2022-11-04T04:48:46;10.70;99.90
17421;DHT22;8828;48.800;9.540;2022-11-04T04:51:14;10.60;99.90
17421;DHT22;8828;48.800;9.540;2022-11-04T04:53:42;10.60;99.90
17421;DHT22;8828;48.800;9.540;2022-11-04T04:56:10;10.60;99.90
17421;DHT22;8828;48.800;9.540;2022-11-04T04:58:38;10.60;99.90
17421;DHT22;8828;48.800;9.540;2022-11-04T05:01:06;10.60;99.90
17421;DHT22;8828;48.800;9.540;2022-11-04T05:03:34;10.60;99.90
17421;DHT22;8828;48.800;9.540;2022-11-04T05:06:10;10.60;99.90
17421;DHT22;8828;48.800;9.540;2022-11-04T05:08:38;10.60;99.90
17421;DHT22;8828;48.800;9.540;2022-11-04T05:11:06;10.60;99.90
17421;DHT22;8828;48.800;9.540;2022-11-04T05:13:34;10.60;99.90
17421;DHT22;8828;48.800;9.540;2022-11-04T05:16:03;10.50;99.90
17421;DHT22;8828;48.800;9.540;2022-11-04T05:18:32;10.50;99.90
17421;DHT22;8828;48.800;9.540;2022-11-04T05:21:02;10.50;99.90
17421;DHT22;8828;48.800;9.540;2022-11-04T05:23:32;10.50;99.90
17421;DHT22;8828;48.800;9.540;2022-11-04T05:26:00;10.50;99.90
17421;DHT22;8828;48.800;9.540;2022-11-04T05:28:28;10.40;99.90
17421;DHT22;8828;48.800;9.540;2022-11-04T05:30:57;10.40;99.90
17421;DHT22;8828;48.800;9.540;2022-11-04T05:33:28;10.40;99.90
17421;DHT22;8828;48.800;9.540;2022-11-04T05:36:05;10.40;99.90
17421;DHT22;8828;48.800;9.540;2022-11-04T05:38:34;10.40;99.90
17421;DHT22;8828;48.800;9.540;2022-11-04T05:41:03;10.30;99.90
17421;DHT22;8828;48.800;9.540;2022-11-04T05:43:31;10.30;99.90
17421;DHT22;8828;48.800;9.540;2022-11-04T05:45:59;10.30;99.90
17421;DHT22;8828;48.800;9.540;2022-11-04T05:48:28;10.30;99.90
17421;DHT22;8828;48.800;9.540;2022-11-04T05:50:56;10.20;99.90
17421;DHT22;8828;48.800;9.540;2022-11-04T05:53:24;10.20;99.90
17421;DHT22;8828;48.800;9.540;2022-11-04T05:55:54;10.20;99.90
17421;DHT22;8828;48.800;9.540;2022-11-04T05:58:22;10.10;99.90
17421;DHT22;8828;48.800;9.540;2022-11-04T06:00:49;10.10;99.90
17421;DHT22;8828;48.800;9.540;2022-11-04T06:03:17;10.10;99.90
17421;DHT22;8828;48.800;9.540;2022-11-04T06:05:45;10.10;99.90
17421;DHT22;8828;48.800;9.540;2022-11-04T06:08:13;10.10;99.90
17421;DHT22;8828;48.800;9.540;2022-11-04T06:10:42;10.10;99.90
17421;DHT22;8828;48.800;9.540;2022-11-04T06:13:11;10.10;99.90
17421;DHT22;8828;48.800;9.540;2022-11-04T06:15:39;10.10;99.90
17421;DHT22;8828;48.800;9.540;2022-11-04T06:18:07;10.10;99.90
17421;DHT22;8828;48.800;9.540;2022-11-04T06:20:35;10.10;99.90
17421;DHT22;8828;48.800;9.540;2022-11-04T06:23:03;10.00;99.90
17421;DHT22;8828;48.800;9.540;2022-11-04T06:25:31;10.10;99.90
17421;DHT22;8828;48.800;9.540;2022-11-04T06:27:59;10.00;99.90
17421;DHT22;8828;48.800;9.540;2022-11-04T06:30:28;10.00;99.90
17421;DHT22;8828;48.800;9.540;2022-11-04T06:32:56;10.00;99.90
17421;DHT22;8828;48.800;9.540;2022-11-04T06:35:24;10.00;99.90
17421;DHT22;8828;48.800;9.540;2022-11-04T06:37:53;10.00;99.90
17421;DHT22;8828;48.800;9.540;2022-11-04T06:40:21;10.00;99.90
17421;DHT22;8828;48.800;9.540;2022-11-04T06:42:49;9.90;99.90
17421;DHT22;8828;48.800;9.540;2022-11-04T06:45:17;10.00;99.90
17421;DHT22;8828;48.800;9.540;2022-11-04T06:47:46;10.00;99.90
17421;DHT22;8828;48.800;9.540;2022-11-04T06:50:14;10.00;99.90
17421;DHT22;8828;48.800;9.540;2022-11-04T06:52:42;9.90;99.90
17421;DHT22;8828;48.800;9.540;2022-11-04T06:55:10;9.90;99.90
17421;DHT22;8828;48.800;9.540;2022-11-04T06:57:38;9.90;99.90
17421;DHT22;8828;48.800;9.540;2022-11-04T07:00:08;10.00;99.90
17421;DHT22;8828;48.800;9.540;2022-11-04T07:02:36;10.00;99.90
17421;DHT22;8828;48.800;9.540;2022-11-04T07:05:06;9.90;99.90
17421;DHT22;8828;48.800;9.540;2022-11-04T07:07:34;10.00;99.90
17421;DHT22;8828;48.800;9.540;2022-11-04T07:10:02;10.00;99.90
17421;DHT22;8828;48.800;9.540;2022-11-04T07:12:30;10.00;99.90
17421;DHT22;8828;48.800;9.540;2022-11-04T07:14:58;10.00;99.90
17421;DHT22;8828;48.800;9.540;2022-11-04T07:17:26;10.00;99.90
17421;DHT22;8828;48.800;9.540;2022-11-04T07:19:54;10.00;99.90
17421;DHT22;8828;48.800;9.540;2022-11-04T07:22:23;10.10;99.90
17421;DHT22;8828;48.800;9.540;2022-11-04T07:24:51;10.10;99.90
17421;DHT22;8828;48.800;9.540;2022-11-04T07:27:19;10.10;99.90
17421;DHT22;8828;48.800;9.540;2022-11-04T07:29:47;10.10;99.90
17421;DHT22;8828;48.800;9.540;2022-11-04T07:32:15;10.20;99.90
17421;DHT22;8828;48.800;9.540;2022-11-04T07:34:43;10.20;99.90
17421;DHT22;8828;48.800;9.540;2022-11-04T07:37:11;10.30;99.90
17421;DHT22;8828;48.800;9.540;2022-11-04T07:39:40;10.30;99.90
17421;DHT22;8828;48.800;9.540;2022-11-04T07:42:08;10.30;99.90
17421;DHT22;8828;48.800;9.540;2022-11-04T07:44:36;10.40;99.90
17421;DHT22;8828;48.800;9.540;2022-11-04T07:47:04;10.40;99.90
17421;DHT22;8828;48.800;9.540;2022-11-04T07:49:32;10.40;99.90
17421;DHT22;8828;48.800;9.540;2022-11-04T07:52:00;10.40;99.90
17421;DHT22;8828;48.800;9.540;2022-11-04T07:54:28;10.40;99.90
17421;DHT22;8828;48.800;9.540;2022-11-04T07:56:57;10.40;99.90
17421;DHT22;8828;48.800;9.540;2022-11-04T07:59:25;10.40;99.90
17421;DHT22;8828;48.800;9.540;2022-11-04T08:01:53;10.50;99.90
17421;DHT22;8828;48.800;9.540;2022-11-04T08:04:22;10.50;99.90
17421;DHT22;8828;48.800;9.540;2022-11-04T08:06:50;10.50;99.90
17421;DHT22;8828;48.800;9.540;2022-11-04T08:09:18;10.50;99.90
17421;DHT22;8828;48.800;9.540;2022-11-04T08:11:46;10.60;99.90
17421;DHT22;8828;48.800;9.540;2022-11-04T08:14:15;10.60;99.90
17421;DHT22;8828;48.800;9.540;2022-11-04T08:16:43;10.60;99.90
17421;DHT22;8828;48.800;9.540;2022-11-04T08:19:11;10.60;99.90
17421;DHT22;8828;48.800;9.540;2022-11-04T08:21:38;10.70;99.90
17421;DHT22;8828;48.800;9.540;2022-11-04T08:24:06;10.70;99.90
17421;DHT22;8828;48.800;9.540;2022-11-04T08:26:34;10.80;99.90
17421;DHT22;8828;48.800;9.540;2022-11-04T08:29:05;10.80;99.90
17421;DHT22;8828;48.800;9.540;2022-11-04T08:31:35;10.90;99.90
17421;DHT22;8828;48.800;9.540;2022-11-04T08:34:03;10.90;99.90
17421;DHT22;8828;48.800;9.540;2022-11-04T08:36:35;11.00;99.90
17421;DHT22;8828;48.800;9.540;2022-11-04T08:39:04;11.00;99.90
17421;DHT22;8828;48.800;9.540;2022-11-04T08:41:37;11.00;99.90
17421;DHT22;8828;48.800;9.540;2022-11-04T08:44:07;11.10;99.90
17421;DHT22;8828;48.800;9.540;2022-11-04T08:46:39;11.10;99.90
17421;DHT22;8828;48.800;9.540;2022-11-04T08:49:08;11.20;99.90
17421;DHT22;8828;48.800;9.540;2022-11-04T08:51:42;11.30;99.90
17421;DHT22;8828;48.800;9.540;2022-11-04T08:54:12;11.30;99.90
17421;DHT22;8828;48.800;9.540;2022-11-04T08:56:40;11.40;99.90
17421;DHT22;8828;48.800;9.540;2022-11-04T08:59:09;11.40;99.90
17421;DHT22;8828;48.800;9.540;2022-11-04T09:01:38;11.50;99.90
17421;DHT22;8828;48.800;9.540;2022-11-04T09:04:06;11.50;99.90
17421;DHT22;8828;48.800;9.540;2022-11-04T09:06:36;11.60;99.90
17421;DHT22;8828;48.800;9.540;2022-11-04T09:09:05;11.70;99.90
17421;DHT22;8828;48.800;9.540;2022-11-04T09:11:36;11.80;99.90
17421;DHT22;8828;48.800;9.540;2022-11-04T09:14:04;11.90;99.90
17421;DHT22;8828;48.800;9.540;2022-11-04T09:16:34;12.00;99.90
17421;DHT22;8828;48.800;9.540;2022-11-04T09:19:03;12.00;99.90
17421;DHT22;8828;48.800;9.540;2022-11-04T09:21:31;12.10;99.90
17421;DHT22;8828;48.800;9.540;2022-11-04T09:23:59;12.10;99.90
17421;DHT22;8828;48.800;9.540;2022-11-04T09:26:27;12.10;99.90
17421;DHT22;8828;48.800;9.540;2022-11-04T09:28:55;12.20;99.90
17421;DHT22;8828;48.800;9.540;2022-11-04T09:31:25;12.20;99.90
17421;DHT22;8828;48.800;9.540;2022-11-04T09:33:53;12.20;99.90
17421;DHT22;8828;48.800;9.540;2022-11-04T09:36:22;12.20;99.90
17421;DHT22;8828;48.800;9.540;2022-11-04T09:38:51;12.20;99.90
17421;DHT22;8828;48.800;9.540;2022-11-04T09:41:55;12.20;99.90
17421;DHT22;8828;48.800;9.540;2022-11-04T09:44:27;12.30;99.90
17421;DHT22;8828;48.800;9.540;2022-11-04T09:47:00;12.30;99.90
17421;DHT22;8828;48.800;9.540;2022-11-04T09:49:33;12.30;99.90
17421;DHT22;8828;48.800;9.540;2022-11-04T09:52:07;12.40;99.90
17421;DHT22;8828;48.800;9.540;2022-11-04T09:54:42;12.40;99.90
17421;DHT22;8828;48.800;9.540;2022-11-04T09:57:16;12.50;99.90
17421;DHT22;8828;48.800;9.540;2022-11-04T09:59:45;12.60;99.90
17421;DHT22;8828;48.800;9.540;2022-11-04T10:02:52;12.70;99.90
17421;DHT22;8828;48.800;9.540;2022-11-04T10:05:39;12.90;99.90
17421;DHT22;8828;48.800;9.540;2022-11-04T10:08:30;13.00;99.90
17421;DHT22;8828;48.800;9.540;2022-11-04T10:11:08;13.10;99.90
17421;DHT22;8828;48.800;9.540;2022-11-04T10:13:48;13.20;99.90
17421;DHT22;8828;48.800;9.540;2022-11-04T10:16:31;13.30;99.90
17421;DHT22;8828;48.800;9.540;2022-11-04T10:19:10;13.50;99.90
17421;DHT22;8828;48.800;9.540;2022-11-04T10:21:51;13.60;99.90
17421;DHT22;8828;48.800;9.540;2022-11-04T10:24:34;13.80;99.90
17421;DHT22;8828;48.800;9.540;2022-11-04T10:27:12;13.90;99.90
17421;DHT22;8828;48.800;9.540;2022-11-04T10:29:43;14.10;99.90
17421;DHT22;8828;48.800;9.540;2022-11-04T10:32:17;14.20;99.90
17421;DHT22;8828;48.800;9.540;2022-11-04T10:34:52;14.30;99.90
17421;DHT22;8828;48.800;9.540;2022-11-04T10:37:23;14.30;99.90
17421;DHT22;8828;48.800;9.540;2022-11-04T10:40:00;14.30;99.90
17421;DHT22;8828;48.800;9.540;2022-11-04T10:42:32;14.40;99.90
17421;DHT22;8828;48.800;9.540;2022-11-04T10:45:00;14.40;99.90
17421;DHT22;8828;48.800;9.540;2022-11-04T10:47:36;14.50;99.90
17421;DHT22;8828;48.800;9.540;2022-11-04T10:50:21;14.70;99.90
17421;DHT22;8828;48.800;9.540;2022-11-04T10:53:12;14.80;99.90
17421;DHT22;8828;48.800;9.540;2022-11-04T10:55:48;15.20;99.90
17421;DHT22;8828;48.800;9.540;2022-11-04T10:58:22;15.50;99.90
17421;DHT22;8828;48.800;9.540;2022-11-04T11:00:51;15.90;99.90
17421;DHT22;8828;48.800;9.540;2022-11-04T11:03:28;16.40;99.90
17421;DHT22;8828;48.800;9.540;2022-11-04T11:06:14;16.80;99.90
17421;DHT22;8828;48.800;9.540;2022-11-04T11:08:43;17.40;99.90
17421;DHT22;8828;48.800;9.540;2022-11-04T11:11:13;18.00;99.90
17421;DHT22;8828;48.800;9.540;2022-11-04T11:13:43;18.40;99.90
17421;DHT22;8828;48.800;9.540;2022-11-04T11:16:17;18.80;99.90
17421;DHT22;8828;48.800;9.540;2022-11-04T11:19:12;18.90;99.90
17421;DHT22;8828;48.800;9.540;2022-11-04T11:21:42;18.90;99.90
17421;DHT22;8828;48.800;9.540;2022-11-04T11:24:18;18.80;99.90
17421;DHT22;8828;48.800;9.540;2022-11-04T11:26:48;18.70;99.90
17421;DHT22;8828;48.800;9.540;2022-11-04T11:29:20;18.60;99.90
17421;DHT22;8828;48.800;9.540;2022-11-04T11:31:49;18.40;99.90
17421;DHT22;8828;48.800;9.540;2022-11-04T11:34:20;18.30;99.90
17421;DHT22;8828;48.800;9.540;2022-11-04T11:36:53;18.30;99.90
17421;DHT22;8828;48.800;9.540;2022-11-04T11:39:23;18.10;99.90
17421;DHT22;8828;48.800;9.540;2022-11-04T11:41:58;17.80;99.90
17421;DHT22;8828;48.800;9.540;2022-11-04T11:44:29;17.50;99.90
17421;DHT22;8828;48.800;9.540;2022-11-04T11:47:00;17.30;99.90
17421;DHT22;8828;48.800;9.540;2022-11-04T11:49:30;17.00;99.90
17421;DHT22;8828;48.800;9.540;2022-11-04T11:52:29;16.70;99.90
17421;DHT22;8828;48.800;9.540;2022-11-04T11:55:04;16.40;99.90
17421;DHT22;8828;48.800;9.540;2022-11-04T11:57:41;16.10;99.90
17421;DHT22;8828;48.800;9.540;2022-11-04T12:00:34;15.90;99.90
17421;DHT22;8828;48.800;9.540;2022-11-04T12:03:13;15.60;99.90
17421;DHT22;8828;48.800;9.540;2022-11-04T12:05:51;15.40;99.90
17421;DHT22;8828;48.800;9.540;2022-11-04T12:08:53;15.20;99.90
17421;DHT22;8828;48.800;9.540;2022-11-04T12:11:50;15.00;99.90
17421;DHT22;8828;48.800;9.540;2022-11-04T12:14:28;14.90;99.90
17421;DHT22;8828;48.800;9.540;2022-11-04T12:17:02;14.80;99.90
17421;DHT22;8828;48.800;9.540;2022-11-04T12:19:46;14.90;99.90
17421;DHT22;8828;48.800;9.540;2022-11-04T12:22:24;15.00;99.90
17421;DHT22;8828;48.800;9.540;2022-11-04T12:25:03;15.10;99.90
17421;DHT22;8828;48.800;9.540;2022-11-04T12:27:39;15.20;99.90
17421;DHT22;8828;48.800;9.540;2022-11-04T12:30:11;15.20;99.90
17421;DHT22;8828;48.800;9.540;2022-11-04T12:32:47;15.30;99.90
17421;DHT22;8828;48.800;9.540;2022-11-04T12:35:27;15.30;99.90
17421;DHT22;8828;48.800;9.540;2022-11-04T12:38:08;15.40;99.90
17421;DHT22;8828;48.800;9.540;2022-11-04T12:40:43;15.40;99.90
17421;DHT22;8828;48.800;9.540;2022-11-04T12:43:39;15.30;99.90
17421;DHT22;8828;48.800;9.540;2022-11-04T12:46:18;15.20;99.90
17421;DHT22;8828;48.800;9.540;2022-11-04T12:49:12;15.10;99.90
17421;DHT22;8828;48.800;9.540;2022-11-04T12:51:49;14.90;99.90
17421;DHT22;8828;48.800;9.540;2022-11-04T12:54:45;14.70;99.90
17421;DHT22;8828;48.800;9.540;2022-11-04T12:57:23;14.60;99.90
17421;DHT22;8828;48.800;9.540;2022-11-04T13:00:03;14.40;99.90
17421;DHT22;8828;48.800;9.540;2022-11-04T13:02:37;14.30;99.90
17421;DHT22;8828;48.800;9.540;2022-11-04T13:05:22;14.20;99.90
17421;DHT22;8828;48.800;9.540;2022-11-04T13:07:55;14.10;99.90
17421;DHT22;8828;48.800;9.540;2022-11-04T13:10:29;14.00;99.90
17421;DHT22;8828;48.800;9.540;2022-11-04T13:13:00;14.00;99.90
17421;DHT22;8828;48.800;9.540;2022-11-04T13:15:32;13.90;99.90
17421;DHT22;8828;48.800;9.540;2022-11-04T13:18:05;13.90;99.90
17421;DHT22;8828;48.800;9.540;2022-11-04T13:20:39;13.80;99.90
17421;DHT22;8828;48.800;9.540;2022-11-04T13:23:16;13.80;99.90
17421;DHT22;8828;48.800;9.540;2022-11-04T13:25:46;13.80;99.90
17421;DHT22;8828;48.800;9.540;2022-11-04T13:28:16;13.80;99.90
17421;DHT22;8828;48.800;9.540;2022-11-04T13:30:51;13.80;99.90
17421;DHT22;8828;48.800;9.540;2022-11-04T13:33:29;13.80;99.90
17421;DHT22;8828;48.800;9.540;2022-11-04T13:36:06;13.80;99.90
17421;DHT22;8828;48.800;9.540;2022-11-04T13:38:42;13.80;99.90
17421;DHT22;8828;48.800;9.540;2022-11-04T13:41:38;13.90;99.90
17421;DHT22;8828;48.800;9.540;2022-11-04T13:44:13;13.80;99.90
17421;DHT22;8828;48.800;9.540;2022-11-04T13:46:46;13.80;99.90
17421;DHT22;8828;48.800;9.540;2022-11-04T13:49:20;13.80;99.90
17421;DHT22;8828;48.800;9.540;2022-11-04T13:52:01;13.80;99.90
17421;DHT22;8828;48.800;9.540;2022-11-04T13:54:34;13.80;99.90
17421;DHT22;8828;48.800;9.540;2022-11-04T13:57:05;13.80;99.90
17421;DHT22;8828;48.800;9.540;2022-11-04T13:59:35;13.80;99.90
17421;DHT22;8828;48.800;9.540;2022-11-04T14:08:23;13.80;99.90
17421;DHT22;8828;48.800;9.540;2022-11-04T14:11:08;13.70;99.90
17421;DHT22;8828;48.800;9.540;2022-11-04T14:14:02;13.70;99.90
17421;DHT22;8828;48.800;9.540;2022-11-04T14:16:39;13.70;99.90
17421;DHT22;8828;48.800;9.540;2022-11-04T14:22:36;13.60;99.90
17421;DHT22;8828;48.800;9.540;2022-11-04T14:25:22;13.60;99.90
17421;DHT22;8828;48.800;9.540;2022-11-04T14:27:52;13.60;99.90
17421;DHT22;8828;48.800;9.540;2022-11-04T14:30:33;13.50;99.90
17421;DHT22;8828;48.800;9.540;2022-11-04T14:33:06;13.60;99.90
17421;DHT22;8828;48.800;9.540;2022-11-04T14:35:35;13.60;99.90
17421;DHT22;8828;48.800;9.540;2022-11-04T14:38:25;13.70;99.90
17421;DHT22;8828;48.800;9.540;2022-11-04T14:41:16;13.70;99.90
17421;DHT22;8828;48.800;9.540;2022-11-04T14:43:48;13.70;99.90
17421;DHT22;8828;48.800;9.540;2022-11-04T14:46:20;13.70;99.90
17421;DHT22;8828;48.800;9.540;2022-11-04T14:48:51;13.70;99.90
17421;DHT22;8828;48.800;9.540;2022-11-04T14:51:26;13.70;99.90
17421;DHT22;8828;48.800;9.540;2022-11-04T14:54:01;13.60;99.90
17421;DHT22;8828;48.800;9.540;2022-11-04T14:56:31;13.60;99.90
17421;DHT22;8828;48.800;9.540;2022-11-04T14:59:01;13.60;99.90
17421;DHT22;8828;48.800;9.540;2022-11-04T15:01:32;13.50;99.90
17421;DHT22;8828;48.800;9.540;2022-11-04T15:04:06;13.50;99.90
17421;DHT22;8828;48.800;9.540;2022-11-04T15:06:38;13.50;99.90
17421;DHT22;8828;48.800;9.540;2022-11-04T15:09:22;13.50;99.90
17421;DHT22;8828;48.800;9.540;2022-11-04T15:11:59;13.50;99.90
17421;DHT22;8828;48.800;9.540;2022-11-04T15:14:46;13.40;99.90
17421;DHT22;8828;48.800;9.540;2022-11-04T15:17:17;13.40;99.90
17421;DHT22;8828;48.800;9.540;2022-11-04T15:19:49;13.40;99.90
17421;DHT22;8828;48.800;9.540;2022-11-04T15:22:18;13.30;99.90
17421;DHT22;8828;48.800;9.540;2022-11-04T15:24:46;13.30;99.90
17421;DHT22;8828;48.800;9.540;2022-11-04T15:27:20;13.20;99.90
17421;DHT22;8828;48.800;9.540;2022-11-04T15:29:54;13.20;99.90
17421;DHT22;8828;48.800;9.540;2022-11-04T15:32:23;13.20;99.90
17421;DHT22;8828;48.800;9.540;2022-11-04T15:34:52;13.10;99.90
17421;DHT22;8828;48.800;9.540;2022-11-04T15:37:21;13.10;99.90
17421;DHT22;8828;48.800;9.540;2022-11-04T15:39:51;13.00;99.90
17421;DHT22;8828;48.800;9.540;2022-11-04T15:42:24;12.90;99.90
17421;DHT22;8828;48.800;9.540;2022-11-04T15:45:35;12.90;99.90
17421;DHT22;8828;48.800;9.540;2022-11-04T15:48:27;12.80;99.90
17421;DHT22;8828;48.800;9.540;2022-11-04T15:51:15;12.80;99.90
17421;DHT22;8828;48.800;9.540;2022-11-04T15:53:52;12.70;99.90
17421;DHT22;8828;48.800;9.540;2022-11-04T15:56:23;12.60;99.90
17421;DHT22;8828;48.800;9.540;2022-11-04T15:58:54;12.60;99.90
17421;DHT22;8828;48.800;9.540;2022-11-04T16:01:23;12.50;99.90
17421;DHT22;8828;48.800;9.540;2022-11-04T16:03:55;12.50;99.90
17421;DHT22;8828;48.800;9.540;2022-11-04T16:06:35;12.40;99.90
17421;DHT22;8828;48.800;9.540;2022-11-04T16:09:15;12.30;99.90
17421;DHT22;8828;48.800;9.540;2022-11-04T16:12:06;12.30;99.90
17421;DHT22;8828;48.800;9.540;2022-11-04T16:14:35;12.30;99.90
17421;DHT22;8828;48.800;9.540;2022-11-04T16:17:03;12.20;99.90
17421;DHT22;8828;48.800;9.540;2022-11-04T16:19:36;12.20;99.90
17421;DHT22;8828;48.800;9.540;2022-11-04T16:22:06;12.20;99.90
17421;DHT22;8828;48.800;9.540;2022-11-04T16:24:38;12.10;99.90
17421;DHT22;8828;48.800;9.540;2022-11-04T16:27:08;12.10;99.90
17421;DHT22;8828;48.800;9.540;2022-11-04T16:29:38;12.10;99.90
17421;DHT22;8828;48.800;9.540;2022-11-04T16:32:16;12.00;99.90
17421;DHT22;8828;48.800;9.540;2022-11-04T16:34:45;12.00;99.90
17421;DHT22;8828;48.800;9.540;2022-11-04T16:37:14;12.00;99.90
17421;DHT22;8828;48.800;9.540;2022-11-04T16:39:43;12.00;99.90